Airfield :
LOGIN :

Register | Disclaimer

   EN    FR    IT 

 










Legend :    VFR   Marginal VFR   IFR   Intensive IFR   Very Intensive IFR
Visi :
Ceiling :
>= 8 km
>= 3000ft
5 to 8 km
1000 to 3000 ft
1500m to 5 km
500 to 1000 ft
800 to 1500m
200 to 500 ft
< 800m
< 200 ft
Symbols :   Thunderstorms  Fog  Heavy snow  Heavy precipitations  Wind > 20 kt
SIGMETs :     Misc.  Thunderstorms  Icing  Turbulence  Mountain Waves  Volcanic Ashes






- Airport Elevation : 135 ft
- IATA code : EDI


EGPH - Edinburgh

CURRENT METAR :
  • 200150Z 22017KT CAVOK 09/08 Q0995

EXPIRED METARs :
  • 200120Z 22013KT 9999 FEW010 BKN020 09/08 Q0995
  • 200050Z 23015KT 9999 BKN012 09/08 Q0996
  • 192350Z 23014KT 9999 OVC016 09/08 Q0997
  • 192320Z 24014KT 9999 -RA OVC014 10/09 Q0997

TAF AMD TAF EGPH
Valid from the 20 at 01:00 until the 21 at 00:00 UTC


200100Z 2001/2024 24009KT 9999 FEW014 SCT022
TEMPO 2001/2011 6000 RA BKN012
PROB40
TEMPO 2004/2008 4000 RADZ +RA
PROB30
TEMPO 2007/2011 BKN007
BECMG 2011/2014 26019KT
PROB40
TEMPO 2012/2024 26022G32KT 5000 SHRASN SHRAGS BKN014CB
ATIS : +44 131 339 2823



MET'MAP, your aeronautical weather chart ! - Copyright ORBIFLY December 2007 - Disclaimer

ORBIFLY MET'MAP TEAM :

Programming & Development : Alexandra Zaïnal
Concept & original design : Baudouin d'Aumeries
Assistance for programming : Marc-Olivier Méhu
Technical & hardware support : Manuel Goepfert

Contact : metmap@orbifly.com




SOURCES & CREDITS :

   NOAA